A- A+ FrançaisEnglishEspañol中国

Services sur Internet Soldes sur Internet Des idées de cadeaux Météo Météo aéro

La météo à : Autours de vous Tarbes-Lourdes-PyrénéesParis-Le-Bourget AlbertvilleLe-Havre-Octeville

manche à air

La météo aéronautique pour les pilotes, la préparation du vol avec les METAR (METeorological Aerodrome Report, message d'observation des conditions météorologiques pour l'aviation) et Les TAF (Terminal Aerodrome Forecast : message de prévision à court terme des conditions météorologiques pour l'aviation). Et les autres ressources comme les VAC (Visual Approch Chart) et les NOTAM (Notice To Airman) pour préprer les vols.

Aéroport Tiree (Royaume-Uni) / OACI EGPU/ IATA TRE

L'altitude de l'aéroport Tiree est de 12 m = 39 ft. Il est situé à proximité de Balemartine (Royaume-Uni). La météo générale à 5 jours est disponible pour Ardshealach situé à 72.3 km.

METAR de l'aéroport Tiree - EGPU

EGPU 110150Z AUTO 25025G35KT 220V280 9999 SCT029/// 06/02 Q0990 RERA

Décodage du METAR de l'aéroport Tiree (GB)

METAR émis par EGPU le mercredi 11 décembre 2019 à 01:50 heure TU. C'est un METAR généré automatiquement, il y a 39 minutes.

La visibilité est de supérieure à 10 km = supérieure à 6.2 sm.

La température est de 6°C = 43 °F et le point rosée est de 2°C = 36 °F . Ce qui correspond à 76% d'humidité relative.

Le QNH est de 990 hPa = 29.23 inHg

Vent de 25 kt = 46 km/h avec des rafales à 35 kt = 65 km/h, orienté à 250°.

Nuages : Nuages épars à 2900 ft = 880 mètres.

RERA

TAF de l'aéroport Tiree - EGPU

EGPU 311401Z 3115/3119 13019KT 9999 SCT030 PROB40 TEMPO 3118/3119 8000 -SHRA

EGPU 311401Z 3115/3119 13019KT 9999 nuages épars à 030 probabilité de 40% d'avoir temporairement 3118/3119 8000 faible SHRA

Aéroport à proximité de Tiree

Météo générale à 5 jours à Ardshealach (72.3 km)Aéroport Barra (Beach) (68 km)Aéroport Islay (99 km)Aéroport Benbecula (113 km)Aéroport Campbeltown (139 km)Aéroport City of Derry (163 km)Aéroport Glasgow (166 km)

Vue aérienne de l'aéroport Tiree

NOTAM de l'aéroport Tiree

Les NOTAM sont fournis sans aucune garantie de leur actualité. Le pilote est le seul responsable de la vérification de sa validité avant de l'utiliser opérationnellement pour préparer un vol ou l'utiliser lors de sa navigation.

Pas de NOTAM

Sources des données